CheckWX is a tool to help pilots better visualize weather data.  It is not intended as a substitute for an official pre-flight weather briefing.

20:25:56 UTC

KSHR METAR
Sheridan County Airport
Sheridan, Wyoming, USA
Current

33 mins ago

KSHR 201953Z AUTO 03004KT 10SM CLR 19/06 A2976 RMK AO2 SLP063 T01890061
Observed
Apr-20 @ 19:53 UTC
Wind
  • 030° at 4 KTS
Visibility
10 SM
Flight Rules
VFR
Cloud Levels
  • Clear skies
Temperature
19°C / 66°F
Dewpoint
C / 43°F
Humidity
43%
Altimeter
29.76" Hg
Pressure
1007.82 hPa
Previous

2 hours ago

KSHR 201853Z AUTO VRB06KT 10SM CLR 20/06 A2978 RMK AO2 SLP065 T02000061
Observed
Apr-20 @ 18:53 UTC
Wind
  • Variable at 6 KTS
Visibility
10 SM
Flight Rules
VFR
Cloud Levels
  • Clear skies
Temperature
20°C / 68°F
Dewpoint
C / 43°F
Humidity
40%
Altimeter
29.78" Hg
Pressure
1008.42 hPa
Previous

3 hours ago

KSHR 201753Z AUTO 30010KT 10SM CLR 19/06 A2981 RMK AO2 SLP078 T01890061 10189 20072 50011
Observed
Apr-20 @ 17:53 UTC
Wind
  • 300° at 10 KTS
Visibility
10 SM
Flight Rules
VFR
Cloud Levels
  • Clear skies
Temperature
19°C / 66°F
Dewpoint
C / 43°F
Humidity
43%
Altimeter
29.81" Hg
Pressure
1009.52 hPa